Airport View

Enter AWOS ICAO identifier for current METAR.

ex. KFNL

KRBW 290320Z AUTO 00000KT 5SM BR SCT010 22/21 A2992 RMK AO2

29 Sep 2020 03:29

Frequency: 118.725

Phone: 843-538-3575

Other Area AWOS: KDYB - KNBC - KCHS - KARW

TAF KNBC 2903/3003 19005KT 9999 FEW025 BKN120 QNH2977INS BECMG 2918/2919 19010G18KT 4800 SHRA BR SCT010 BKN025 OVC100 621409 QNH2972INS TEMPO 2922/3003 27010G20KT 1600 TSRA BR BKN008 OVC025 T22/2911Z T28/2921Z